sensor_id;sensor_type;location;lat;lon;timestamp;P1;durP1;ratioP1;P2;durP2;ratioP2
10333;SDS011;5212;47.892;16.406;2023-07-30T00:01:20;5.00;;;2.90;;
10333;SDS011;5212;47.892;16.406;2023-07-30T00:03:46;2.80;;;2.50;;
10333;SDS011;5212;47.892;16.406;2023-07-30T00:06:12;3.03;;;2.73;;
10333;SDS011;5212;47.892;16.406;2023-07-30T00:08:39;3.03;;;2.73;;
10333;SDS011;5212;47.892;16.406;2023-07-30T00:11:05;2.80;;;2.40;;
10333;SDS011;5212;47.892;16.406;2023-07-30T00:13:31;2.60;;;2.40;;
10333;SDS011;5212;47.892;16.406;2023-07-30T00:15:57;3.13;;;2.67;;
10333;SDS011;5212;47.892;16.406;2023-07-30T00:18:23;2.70;;;2.50;;
10333;SDS011;5212;47.892;16.406;2023-07-30T00:20:49;2.80;;;2.60;;
10333;SDS011;5212;47.892;16.406;2023-07-30T00:23:15;2.60;;;2.40;;
10333;SDS011;5212;47.892;16.406;2023-07-30T00:25:42;2.33;;;2.13;;
10333;SDS011;5212;47.892;16.406;2023-07-30T00:28:08;3.10;;;2.80;;
10333;SDS011;5212;47.892;16.406;2023-07-30T00:30:34;2.83;;;2.63;;
10333;SDS011;5212;47.892;16.406;2023-07-30T00:33:00;2.70;;;2.50;;
10333;SDS011;5212;47.892;16.406;2023-07-30T00:35:26;3.37;;;2.57;;
10333;SDS011;5212;47.892;16.406;2023-07-30T00:37:52;2.70;;;2.50;;
10333;SDS011;5212;47.892;16.406;2023-07-30T00:40:18;2.80;;;2.60;;
10333;SDS011;5212;47.892;16.406;2023-07-30T00:42:45;3.00;;;2.77;;
10333;SDS011;5212;47.892;16.406;2023-07-30T00:45:11;3.37;;;2.60;;
10333;SDS011;5212;47.892;16.406;2023-07-30T00:47:37;3.00;;;2.73;;
10333;SDS011;5212;47.892;16.406;2023-07-30T00:50:04;3.27;;;2.97;;
10333;SDS011;5212;47.892;16.406;2023-07-30T00:52:31;3.80;;;3.47;;
10333;SDS011;5212;47.892;16.406;2023-07-30T00:54:58;3.00;;;2.70;;
10333;SDS011;5212;47.892;16.406;2023-07-30T00:57:24;3.00;;;2.70;;
10333;SDS011;5212;47.892;16.406;2023-07-30T00:59:51;2.70;;;2.50;;
10333;SDS011;5212;47.892;16.406;2023-07-30T01:02:17;3.13;;;2.83;;
10333;SDS011;5212;47.892;16.406;2023-07-30T01:04:44;3.40;;;3.10;;
10333;SDS011;5212;47.892;16.406;2023-07-30T01:07:10;3.23;;;2.93;;
10333;SDS011;5212;47.892;16.406;2023-07-30T01:09:36;3.30;;;3.00;;
10333;SDS011;5212;47.892;16.406;2023-07-30T01:12:03;3.50;;;2.83;;
10333;SDS011;5212;47.892;16.406;2023-07-30T01:14:30;3.40;;;3.10;;
10333;SDS011;5212;47.892;16.406;2023-07-30T01:16:57;3.40;;;2.63;;
10333;SDS011;5212;47.892;16.406;2023-07-30T01:19:23;3.33;;;3.03;;
10333;SDS011;5212;47.892;16.406;2023-07-30T01:21:50;3.30;;;3.00;;
10333;SDS011;5212;47.892;16.406;2023-07-30T01:24:16;3.27;;;2.90;;
10333;SDS011;5212;47.892;16.406;2023-07-30T01:26:43;3.57;;;3.27;;
10333;SDS011;5212;47.892;16.406;2023-07-30T01:29:11;3.27;;;2.90;;
10333;SDS011;5212;47.892;16.406;2023-07-30T01:31:40;3.00;;;2.70;;
10333;SDS011;5212;47.892;16.406;2023-07-30T01:34:07;3.30;;;2.93;;
10333;SDS011;5212;47.892;16.406;2023-07-30T01:36:33;3.20;;;2.80;;
10333;SDS011;5212;47.892;16.406;2023-07-30T01:39:01;3.27;;;2.77;;
10333;SDS011;5212;47.892;16.406;2023-07-30T01:41:28;3.30;;;3.00;;
10333;SDS011;5212;47.892;16.406;2023-07-30T01:43:54;3.30;;;2.80;;
10333;SDS011;5212;47.892;16.406;2023-07-30T01:46:20;3.33;;;3.03;;
10333;SDS011;5212;47.892;16.406;2023-07-30T01:48:46;3.20;;;2.80;;
10333;SDS011;5212;47.892;16.406;2023-07-30T01:51:12;3.70;;;3.27;;
10333;SDS011;5212;47.892;16.406;2023-07-30T01:53:38;3.40;;;3.10;;
10333;SDS011;5212;47.892;16.406;2023-07-30T01:56:05;3.63;;;3.17;;
10333;SDS011;5212;47.892;16.406;2023-07-30T01:58:31;3.30;;;3.00;;
10333;SDS011;5212;47.892;16.406;2023-07-30T02:00:57;3.23;;;2.93;;
10333;SDS011;5212;47.892;16.406;2023-07-30T02:03:23;3.10;;;2.80;;
10333;SDS011;5212;47.892;16.406;2023-07-30T02:05:49;3.20;;;2.90;;
10333;SDS011;5212;47.892;16.406;2023-07-30T02:08:15;2.67;;;2.47;;
10333;SDS011;5212;47.892;16.406;2023-07-30T02:10:41;2.80;;;2.60;;
10333;SDS011;5212;47.892;16.406;2023-07-30T02:13:07;3.10;;;2.60;;
10333;SDS011;5212;47.892;16.406;2023-07-30T02:15:33;2.90;;;2.67;;
10333;SDS011;5212;47.892;16.406;2023-07-30T02:17:59;3.30;;;2.63;;
10333;SDS011;5212;47.892;16.406;2023-07-30T02:20:25;2.77;;;2.57;;
10333;SDS011;5212;47.892;16.406;2023-07-30T02:22:52;2.60;;;2.40;;
10333;SDS011;5212;47.892;16.406;2023-07-30T02:25:18;2.77;;;2.57;;
10333;SDS011;5212;47.892;16.406;2023-07-30T02:27:44;2.73;;;2.43;;
10333;SDS011;5212;47.892;16.406;2023-07-30T02:30:11;2.53;;;2.33;;
10333;SDS011;5212;47.892;16.406;2023-07-30T02:32:37;3.00;;;2.70;;
10333;SDS011;5212;47.892;16.406;2023-07-30T02:35:03;3.00;;;2.70;;
10333;SDS011;5212;47.892;16.406;2023-07-30T02:37:30;2.53;;;2.33;;
10333;SDS011;5212;47.892;16.406;2023-07-30T02:39:56;2.60;;;2.40;;
10333;SDS011;5212;47.892;16.406;2023-07-30T02:42:22;2.90;;;2.67;;
10333;SDS011;5212;47.892;16.406;2023-07-30T02:44:48;2.93;;;2.57;;
10333;SDS011;5212;47.892;16.406;2023-07-30T02:47:15;2.57;;;2.37;;
10333;SDS011;5212;47.892;16.406;2023-07-30T02:49:41;2.70;;;2.50;;
10333;SDS011;5212;47.892;16.406;2023-07-30T02:52:07;2.60;;;2.40;;
10333;SDS011;5212;47.892;16.406;2023-07-30T02:54:33;2.67;;;2.47;;
10333;SDS011;5212;47.892;16.406;2023-07-30T02:56:59;2.37;;;2.17;;
10333;SDS011;5212;47.892;16.406;2023-07-30T02:59:25;2.67;;;2.13;;
10333;SDS011;5212;47.892;16.406;2023-07-30T03:01:51;2.53;;;2.33;;
10333;SDS011;5212;47.892;16.406;2023-07-30T03:04:18;2.40;;;2.20;;
10333;SDS011;5212;47.892;16.406;2023-07-30T03:06:44;2.70;;;2.50;;
10333;SDS011;5212;47.892;16.406;2023-07-30T03:09:10;2.50;;;2.30;;
10333;SDS011;5212;47.892;16.406;2023-07-30T03:11:36;2.90;;;2.40;;
10333;SDS011;5212;47.892;16.406;2023-07-30T03:14:02;2.77;;;2.57;;
10333;SDS011;5212;47.892;16.406;2023-07-30T03:16:28;2.53;;;2.20;;
10333;SDS011;5212;47.892;16.406;2023-07-30T03:18:54;2.90;;;2.70;;
10333;SDS011;5212;47.892;16.406;2023-07-30T03:21:20;2.90;;;2.53;;
10333;SDS011;5212;47.892;16.406;2023-07-30T03:23:46;2.87;;;2.57;;
10333;SDS011;5212;47.892;16.406;2023-07-30T03:26:13;2.60;;;2.40;;
10333;SDS011;5212;47.892;16.406;2023-07-30T03:28:39;3.37;;;2.47;;
10333;SDS011;5212;47.892;16.406;2023-07-30T03:31:06;2.80;;;2.50;;
10333;SDS011;5212;47.892;16.406;2023-07-30T03:33:32;2.67;;;2.47;;
10333;SDS011;5212;47.892;16.406;2023-07-30T03:35:58;2.67;;;2.43;;
10333;SDS011;5212;47.892;16.406;2023-07-30T03:38:25;2.50;;;2.30;;
10333;SDS011;5212;47.892;16.406;2023-07-30T03:40:51;2.97;;;2.70;;
10333;SDS011;5212;47.892;16.406;2023-07-30T03:43:17;3.37;;;2.63;;
10333;SDS011;5212;47.892;16.406;2023-07-30T03:45:43;2.80;;;2.60;;
10333;SDS011;5212;47.892;16.406;2023-07-30T03:48:09;2.80;;;2.50;;
10333;SDS011;5212;47.892;16.406;2023-07-30T03:50:35;2.60;;;2.40;;
10333;SDS011;5212;47.892;16.406;2023-07-30T03:53:01;3.00;;;2.70;;
10333;SDS011;5212;47.892;16.406;2023-07-30T03:55:28;3.07;;;2.80;;
10333;SDS011;5212;47.892;16.406;2023-07-30T03:57:54;2.73;;;2.53;;
10333;SDS011;5212;47.892;16.406;2023-07-30T04:00:20;2.93;;;2.63;;
10333;SDS011;5212;47.892;16.406;2023-07-30T04:02:46;2.80;;;2.60;;
10333;SDS011;5212;47.892;16.406;2023-07-30T04:05:12;3.07;;;2.67;;
10333;SDS011;5212;47.892;16.406;2023-07-30T04:07:38;2.60;;;2.40;;
10333;SDS011;5212;47.892;16.406;2023-07-30T04:10:04;2.83;;;2.63;;
10333;SDS011;5212;47.892;16.406;2023-07-30T04:12:32;2.70;;;2.50;;
10333;SDS011;5212;47.892;16.406;2023-07-30T04:14:58;2.53;;;2.33;;
10333;SDS011;5212;47.892;16.406;2023-07-30T04:17:24;2.63;;;2.43;;
10333;SDS011;5212;47.892;16.406;2023-07-30T04:19:50;2.80;;;2.60;;
10333;SDS011;5212;47.892;16.406;2023-07-30T04:22:15;3.17;;;2.60;;
10333;SDS011;5212;47.892;16.406;2023-07-30T04:24:41;3.20;;;2.90;;
10333;SDS011;5212;47.892;16.406;2023-07-30T04:27:07;2.90;;;2.70;;
10333;SDS011;5212;47.892;16.406;2023-07-30T04:29:34;2.70;;;2.50;;
10333;SDS011;5212;47.892;16.406;2023-07-30T04:32:00;2.67;;;2.47;;
10333;SDS011;5212;47.892;16.406;2023-07-30T04:34:26;2.90;;;2.60;;
10333;SDS011;5212;47.892;16.406;2023-07-30T04:36:52;2.63;;;2.43;;
10333;SDS011;5212;47.892;16.406;2023-07-30T04:39:18;2.70;;;2.50;;
10333;SDS011;5212;47.892;16.406;2023-07-30T04:41:44;4.17;;;2.73;;
10333;SDS011;5212;47.892;16.406;2023-07-30T04:44:10;2.80;;;2.60;;
10333;SDS011;5212;47.892;16.406;2023-07-30T04:46:37;2.77;;;2.57;;
10333;SDS011;5212;47.892;16.406;2023-07-30T04:49:03;3.07;;;2.77;;
10333;SDS011;5212;47.892;16.406;2023-07-30T04:51:29;3.13;;;2.80;;
10333;SDS011;5212;47.892;16.406;2023-07-30T04:53:55;2.67;;;2.47;;
10333;SDS011;5212;47.892;16.406;2023-07-30T04:56:21;2.70;;;2.50;;
10333;SDS011;5212;47.892;16.406;2023-07-30T04:58:47;2.63;;;2.43;;
10333;SDS011;5212;47.892;16.406;2023-07-30T05:01:13;3.30;;;2.87;;
10333;SDS011;5212;47.892;16.406;2023-07-30T05:03:40;3.03;;;2.70;;
10333;SDS011;5212;47.892;16.406;2023-07-30T05:06:06;2.83;;;2.53;;
10333;SDS011;5212;47.892;16.406;2023-07-30T05:08:32;2.80;;;2.60;;
10333;SDS011;5212;47.892;16.406;2023-07-30T05:10:58;2.90;;;2.60;;
10333;SDS011;5212;47.892;16.406;2023-07-30T05:13:24;2.93;;;2.63;;
10333;SDS011;5212;47.892;16.406;2023-07-30T05:15:50;2.60;;;2.40;;
10333;SDS011;5212;47.892;16.406;2023-07-30T05:18:16;2.60;;;2.40;;
10333;SDS011;5212;47.892;16.406;2023-07-30T05:20:43;2.40;;;2.20;;
10333;SDS011;5212;47.892;16.406;2023-07-30T05:23:11;2.83;;;2.53;;
10333;SDS011;5212;47.892;16.406;2023-07-30T05:25:37;2.77;;;2.57;;
10333;SDS011;5212;47.892;16.406;2023-07-30T05:28:03;2.70;;;2.50;;
10333;SDS011;5212;47.892;16.406;2023-07-30T05:30:29;2.50;;;2.30;;
10333;SDS011;5212;47.892;16.406;2023-07-30T05:32:55;2.43;;;2.23;;
10333;SDS011;5212;47.892;16.406;2023-07-30T05:35:22;2.33;;;2.13;;
10333;SDS011;5212;47.892;16.406;2023-07-30T05:37:48;2.40;;;2.20;;
10333;SDS011;5212;47.892;16.406;2023-07-30T05:40:14;2.60;;;2.40;;
10333;SDS011;5212;47.892;16.406;2023-07-30T05:42:40;2.70;;;2.50;;
10333;SDS011;5212;47.892;16.406;2023-07-30T05:45:07;2.40;;;2.20;;
10333;SDS011;5212;47.892;16.406;2023-07-30T05:47:34;2.47;;;2.27;;
10333;SDS011;5212;47.892;16.406;2023-07-30T05:50:00;3.13;;;2.10;;
10333;SDS011;5212;47.892;16.406;2023-07-30T05:52:27;2.30;;;2.10;;
10333;SDS011;5212;47.892;16.406;2023-07-30T05:54:53;2.23;;;2.03;;
10333;SDS011;5212;47.892;16.406;2023-07-30T05:57:19;2.20;;;2.00;;
10333;SDS011;5212;47.892;16.406;2023-07-30T05:59:45;2.07;;;1.90;;
10333;SDS011;5212;47.892;16.406;2023-07-30T06:02:12;2.30;;;2.10;;
10333;SDS011;5212;47.892;16.406;2023-07-30T06:04:38;2.33;;;2.13;;
10333;SDS011;5212;47.892;16.406;2023-07-30T06:07:04;2.40;;;2.20;;
10333;SDS011;5212;47.892;16.406;2023-07-30T06:09:30;2.30;;;2.10;;
10333;SDS011;5212;47.892;16.406;2023-07-30T06:11:57;2.03;;;1.93;;
10333;SDS011;5212;47.892;16.406;2023-07-30T06:14:23;2.10;;;2.00;;
10333;SDS011;5212;47.892;16.406;2023-07-30T06:16:49;2.33;;;2.13;;
10333;SDS011;5212;47.892;16.406;2023-07-30T06:19:15;2.27;;;2.07;;
10333;SDS011;5212;47.892;16.406;2023-07-30T06:21:41;2.23;;;2.03;;
10333;SDS011;5212;47.892;16.406;2023-07-30T06:24:07;2.40;;;2.20;;
10333;SDS011;5212;47.892;16.406;2023-07-30T06:26:33;2.00;;;1.90;;
10333;SDS011;5212;47.892;16.406;2023-07-30T06:29:00;2.40;;;2.20;;
10333;SDS011;5212;47.892;16.406;2023-07-30T06:31:26;2.37;;;2.17;;
10333;SDS011;5212;47.892;16.406;2023-07-30T06:33:52;2.20;;;2.00;;
10333;SDS011;5212;47.892;16.406;2023-07-30T06:36:18;2.30;;;2.10;;
10333;SDS011;5212;47.892;16.406;2023-07-30T06:38:44;2.00;;;1.90;;
10333;SDS011;5212;47.892;16.406;2023-07-30T06:41:10;2.30;;;2.10;;
10333;SDS011;5212;47.892;16.406;2023-07-30T06:43:36;2.50;;;2.30;;
10333;SDS011;5212;47.892;16.406;2023-07-30T06:46:03;2.00;;;1.90;;
10333;SDS011;5212;47.892;16.406;2023-07-30T06:48:29;2.47;;;2.10;;
10333;SDS011;5212;47.892;16.406;2023-07-30T06:50:55;2.50;;;2.30;;
10333;SDS011;5212;47.892;16.406;2023-07-30T06:53:22;2.10;;;1.90;;
10333;SDS011;5212;47.892;16.406;2023-07-30T06:55:48;2.47;;;2.27;;
10333;SDS011;5212;47.892;16.406;2023-07-30T06:58:14;2.27;;;2.07;;
10333;SDS011;5212;47.892;16.406;2023-07-30T07:00:40;2.27;;;2.07;;
10333;SDS011;5212;47.892;16.406;2023-07-30T07:03:07;2.23;;;2.10;;
10333;SDS011;5212;47.892;16.406;2023-07-30T07:05:33;3.00;;;2.20;;
10333;SDS011;5212;47.892;16.406;2023-07-30T07:07:59;2.70;;;2.30;;
10333;SDS011;5212;47.892;16.406;2023-07-30T07:10:25;2.20;;;2.00;;
10333;SDS011;5212;47.892;16.406;2023-07-30T07:12:51;3.37;;;2.00;;
10333;SDS011;5212;47.892;16.406;2023-07-30T07:15:17;2.17;;;1.97;;
10333;SDS011;5212;47.892;16.406;2023-07-30T07:17:43;2.30;;;2.10;;
10333;SDS011;5212;47.892;16.406;2023-07-30T07:20:10;3.17;;;2.20;;
10333;SDS011;5212;47.892;16.406;2023-07-30T07:22:36;2.70;;;1.87;;
10333;SDS011;5212;47.892;16.406;2023-07-30T07:25:02;2.20;;;2.00;;
10333;SDS011;5212;47.892;16.406;2023-07-30T07:27:29;2.33;;;2.13;;
10333;SDS011;5212;47.892;16.406;2023-07-30T07:29:55;2.17;;;1.97;;
10333;SDS011;5212;47.892;16.406;2023-07-30T07:32:21;1.87;;;1.77;;
10333;SDS011;5212;47.892;16.406;2023-07-30T07:34:47;2.00;;;1.80;;
10333;SDS011;5212;47.892;16.406;2023-07-30T07:37:14;3.20;;;1.97;;
10333;SDS011;5212;47.892;16.406;2023-07-30T07:39:41;2.20;;;2.00;;
10333;SDS011;5212;47.892;16.406;2023-07-30T07:42:07;2.20;;;2.00;;
10333;SDS011;5212;47.892;16.406;2023-07-30T07:44:33;1.83;;;1.73;;
10333;SDS011;5212;47.892;16.406;2023-07-30T07:46:59;2.00;;;1.90;;
10333;SDS011;5212;47.892;16.406;2023-07-30T07:49:25;2.20;;;2.00;;
10333;SDS011;5212;47.892;16.406;2023-07-30T07:51:51;2.33;;;2.13;;
10333;SDS011;5212;47.892;16.406;2023-07-30T07:54:18;2.30;;;2.10;;
10333;SDS011;5212;47.892;16.406;2023-07-30T07:56:44;2.20;;;2.00;;
10333;SDS011;5212;47.892;16.406;2023-07-30T07:59:10;3.10;;;2.10;;
10333;SDS011;5212;47.892;16.406;2023-07-30T08:01:36;2.70;;;2.50;;
10333;SDS011;5212;47.892;16.406;2023-07-30T08:04:02;2.17;;;1.97;;
10333;SDS011;5212;47.892;16.406;2023-07-30T08:06:28;2.30;;;2.10;;
10333;SDS011;5212;47.892;16.406;2023-07-30T08:08:54;2.30;;;2.10;;
10333;SDS011;5212;47.892;16.406;2023-07-30T08:11:21;2.40;;;2.20;;
10333;SDS011;5212;47.892;16.406;2023-07-30T08:13:47;2.80;;;2.43;;
10333;SDS011;5212;47.892;16.406;2023-07-30T08:16:13;2.30;;;2.10;;
10333;SDS011;5212;47.892;16.406;2023-07-30T08:18:39;2.27;;;2.07;;
10333;SDS011;5212;47.892;16.406;2023-07-30T08:21:05;2.40;;;2.10;;
10333;SDS011;5212;47.892;16.406;2023-07-30T08:23:31;2.50;;;2.30;;
10333;SDS011;5212;47.892;16.406;2023-07-30T08:25:57;2.40;;;2.20;;
10333;SDS011;5212;47.892;16.406;2023-07-30T08:28:24;2.50;;;2.30;;
10333;SDS011;5212;47.892;16.406;2023-07-30T08:30:50;2.40;;;2.20;;
10333;SDS011;5212;47.892;16.406;2023-07-30T08:33:16;2.27;;;2.07;;
10333;SDS011;5212;47.892;16.406;2023-07-30T08:35:42;2.43;;;2.23;;
10333;SDS011;5212;47.892;16.406;2023-07-30T08:38:08;2.33;;;2.13;;
10333;SDS011;5212;47.892;16.406;2023-07-30T08:40:34;2.50;;;2.30;;
10333;SDS011;5212;47.892;16.406;2023-07-30T08:43:00;2.17;;;2.00;;
10333;SDS011;5212;47.892;16.406;2023-07-30T08:45:29;2.60;;;2.40;;
10333;SDS011;5212;47.892;16.406;2023-07-30T08:47:55;2.73;;;2.53;;
10333;SDS011;5212;47.892;16.406;2023-07-30T08:50:21;2.80;;;2.60;;
10333;SDS011;5212;47.892;16.406;2023-07-30T08:52:47;2.70;;;2.47;;
10333;SDS011;5212;47.892;16.406;2023-07-30T08:55:13;3.60;;;2.63;;
10333;SDS011;5212;47.892;16.406;2023-07-30T08:57:40;4.20;;;3.00;;
10333;SDS011;5212;47.892;16.406;2023-07-30T09:00:08;3.07;;;2.67;;
10333;SDS011;5212;47.892;16.406;2023-07-30T09:02:37;3.03;;;2.40;;
10333;SDS011;5212;47.892;16.406;2023-07-30T09:05:04;2.60;;;2.23;;
10333;SDS011;5212;47.892;16.406;2023-07-30T09:07:31;2.70;;;2.50;;
10333;SDS011;5212;47.892;16.406;2023-07-30T09:09:57;2.57;;;2.37;;
10333;SDS011;5212;47.892;16.406;2023-07-30T09:12:25;2.60;;;2.40;;
10333;SDS011;5212;47.892;16.406;2023-07-30T09:14:52;2.17;;;1.97;;
10333;SDS011;5212;47.892;16.406;2023-07-30T09:17:18;2.30;;;2.10;;
10333;SDS011;5212;47.892;16.406;2023-07-30T09:19:45;2.30;;;2.10;;
10333;SDS011;5212;47.892;16.406;2023-07-30T09:22:12;2.30;;;2.10;;
10333;SDS011;5212;47.892;16.406;2023-07-30T09:24:41;2.20;;;2.00;;
10333;SDS011;5212;47.892;16.406;2023-07-30T09:27:07;2.57;;;2.37;;
10333;SDS011;5212;47.892;16.406;2023-07-30T09:29:33;2.30;;;2.10;;
10333;SDS011;5212;47.892;16.406;2023-07-30T09:31:59;2.50;;;2.30;;
10333;SDS011;5212;47.892;16.406;2023-07-30T09:34:25;3.33;;;2.50;;
10333;SDS011;5212;47.892;16.406;2023-07-30T09:36:52;2.87;;;2.43;;
10333;SDS011;5212;47.892;16.406;2023-07-30T09:39:20;2.50;;;2.30;;
10333;SDS011;5212;47.892;16.406;2023-07-30T09:41:46;2.60;;;2.40;;
10333;SDS011;5212;47.892;16.406;2023-07-30T09:44:13;2.43;;;2.23;;
10333;SDS011;5212;47.892;16.406;2023-07-30T09:46:41;2.60;;;2.40;;
10333;SDS011;5212;47.892;16.406;2023-07-30T09:49:08;2.70;;;2.50;;
10333;SDS011;5212;47.892;16.406;2023-07-30T09:51:34;2.97;;;2.50;;
10333;SDS011;5212;47.892;16.406;2023-07-30T09:54:03;2.70;;;2.23;;
10333;SDS011;5212;47.892;16.406;2023-07-30T09:56:29;2.73;;;2.53;;
10333;SDS011;5212;47.892;16.406;2023-07-30T09:58:55;3.83;;;2.63;;
10333;SDS011;5212;47.892;16.406;2023-07-30T10:01:21;2.50;;;2.30;;
10333;SDS011;5212;47.892;16.406;2023-07-30T10:03:49;2.40;;;2.20;;
10333;SDS011;5212;47.892;16.406;2023-07-30T10:06:15;2.53;;;2.33;;
10333;SDS011;5212;47.892;16.406;2023-07-30T10:08:42;2.33;;;2.13;;
10333;SDS011;5212;47.892;16.406;2023-07-30T10:11:09;2.87;;;2.20;;
10333;SDS011;5212;47.892;16.406;2023-07-30T10:13:36;2.00;;;1.90;;
10333;SDS011;5212;47.892;16.406;2023-07-30T10:16:03;2.10;;;1.90;;
10333;SDS011;5212;47.892;16.406;2023-07-30T10:18:37;2.23;;;2.03;;
10333;SDS011;5212;47.892;16.406;2023-07-30T10:21:04;2.27;;;2.07;;
10333;SDS011;5212;47.892;16.406;2023-07-30T10:23:33;2.20;;;2.10;;
10333;SDS011;5212;47.892;16.406;2023-07-30T10:25:59;2.23;;;2.03;;
10333;SDS011;5212;47.892;16.406;2023-07-30T10:28:35;1.83;;;1.73;;
10333;SDS011;5212;47.892;16.406;2023-07-30T10:31:04;2.20;;;2.00;;
10333;SDS011;5212;47.892;16.406;2023-07-30T10:33:46;2.23;;;2.03;;
10333;SDS011;5212;47.892;16.406;2023-07-30T10:36:12;2.13;;;1.93;;
10333;SDS011;5212;47.892;16.406;2023-07-30T10:38:39;2.30;;;2.10;;
10333;SDS011;5212;47.892;16.406;2023-07-30T10:41:07;2.13;;;2.03;;
10333;SDS011;5212;47.892;16.406;2023-07-30T10:43:35;1.87;;;1.77;;
10333;SDS011;5212;47.892;16.406;2023-07-30T10:46:02;2.20;;;2.00;;
10333;SDS011;5212;47.892;16.406;2023-07-30T10:48:32;2.10;;;1.90;;
10333;SDS011;5212;47.892;16.406;2023-07-30T10:51:01;3.40;;;2.40;;
10333;SDS011;5212;47.892;16.406;2023-07-30T10:53:28;2.03;;;1.90;;
10333;SDS011;5212;47.892;16.406;2023-07-30T10:55:54;2.03;;;1.90;;
10333;SDS011;5212;47.892;16.406;2023-07-30T10:58:25;2.27;;;1.80;;
10333;SDS011;5212;47.892;16.406;2023-07-30T11:00:52;3.30;;;2.10;;
10333;SDS011;5212;47.892;16.406;2023-07-30T11:03:18;2.03;;;1.93;;
10333;SDS011;5212;47.892;16.406;2023-07-30T11:05:46;2.40;;;2.20;;
10333;SDS011;5212;47.892;16.406;2023-07-30T11:08:12;1.93;;;1.83;;
10333;SDS011;5212;47.892;16.406;2023-07-30T11:10:42;2.30;;;2.10;;
10333;SDS011;5212;47.892;16.406;2023-07-30T11:13:08;2.20;;;2.00;;
10333;SDS011;5212;47.892;16.406;2023-07-30T11:15:39;2.20;;;2.10;;
10333;SDS011;5212;47.892;16.406;2023-07-30T11:18:07;2.07;;;1.97;;
10333;SDS011;5212;47.892;16.406;2023-07-30T11:20:33;2.20;;;2.00;;
10333;SDS011;5212;47.892;16.406;2023-07-30T11:22:59;2.07;;;1.97;;
10333;SDS011;5212;47.892;16.406;2023-07-30T11:25:25;1.90;;;1.80;;
10333;SDS011;5212;47.892;16.406;2023-07-30T11:27:51;1.80;;;1.53;;
10333;SDS011;5212;47.892;16.406;2023-07-30T11:30:17;1.87;;;1.77;;
10333;SDS011;5212;47.892;16.406;2023-07-30T11:32:44;3.13;;;1.70;;
10333;SDS011;5212;47.892;16.406;2023-07-30T11:35:10;1.90;;;1.80;;
10333;SDS011;5212;47.892;16.406;2023-07-30T11:37:37;1.70;;;1.60;;
10333;SDS011;5212;47.892;16.406;2023-07-30T11:40:05;2.00;;;1.80;;
10333;SDS011;5212;47.892;16.406;2023-07-30T11:42:33;1.90;;;1.80;;
10333;SDS011;5212;47.892;16.406;2023-07-30T11:45:01;1.90;;;1.80;;
10333;SDS011;5212;47.892;16.406;2023-07-30T11:47:42;1.87;;;1.77;;
10333;SDS011;5212;47.892;16.406;2023-07-30T11:50:08;1.57;;;1.47;;
10333;SDS011;5212;47.892;16.406;2023-07-30T11:52:35;1.60;;;1.50;;
10333;SDS011;5212;47.892;16.406;2023-07-30T11:55:01;1.53;;;1.43;;
10333;SDS011;5212;47.892;16.406;2023-07-30T11:57:32;1.23;;;1.13;;
10333;SDS011;5212;47.892;16.406;2023-07-30T11:59:59;1.20;;;0.97;;
10333;SDS011;5212;47.892;16.406;2023-07-30T12:02:25;1.20;;;1.10;;
10333;SDS011;5212;47.892;16.406;2023-07-30T12:04:51;1.13;;;1.03;;
10333;SDS011;5212;47.892;16.406;2023-07-30T12:07:21;1.13;;;1.00;;
10333;SDS011;5212;47.892;16.406;2023-07-30T12:09:48;1.20;;;1.10;;
10333;SDS011;5212;47.892;16.406;2023-07-30T12:12:14;1.40;;;1.30;;
10333;SDS011;5212;47.892;16.406;2023-07-30T12:14:44;1.57;;;1.20;;
10333;SDS011;5212;47.892;16.406;2023-07-30T12:17:10;1.20;;;1.10;;
10333;SDS011;5212;47.892;16.406;2023-07-30T12:19:36;1.20;;;1.10;;
10333;SDS011;5212;47.892;16.406;2023-07-30T12:22:02;1.37;;;1.20;;
10333;SDS011;5212;47.892;16.406;2023-07-30T12:24:29;1.20;;;1.10;;
10333;SDS011;5212;47.892;16.406;2023-07-30T12:26:55;1.30;;;1.20;;
10333;SDS011;5212;47.892;16.406;2023-07-30T12:29:21;1.17;;;1.00;;
10333;SDS011;5212;47.892;16.406;2023-07-30T12:31:47;1.50;;;1.40;;
10333;SDS011;5212;47.892;16.406;2023-07-30T12:34:16;1.30;;;1.20;;
10333;SDS011;5212;47.892;16.406;2023-07-30T12:36:42;1.40;;;1.30;;
10333;SDS011;5212;47.892;16.406;2023-07-30T12:39:08;2.13;;;1.57;;
10333;SDS011;5212;47.892;16.406;2023-07-30T12:41:34;1.30;;;1.20;;
10333;SDS011;5212;47.892;16.406;2023-07-30T12:44:01;1.37;;;1.27;;
10333;SDS011;5212;47.892;16.406;2023-07-30T12:46:29;2.10;;;1.40;;
10333;SDS011;5212;47.892;16.406;2023-07-30T12:48:57;1.40;;;1.30;;
10333;SDS011;5212;47.892;16.406;2023-07-30T12:51:23;1.40;;;1.30;;
10333;SDS011;5212;47.892;16.406;2023-07-30T12:53:49;1.33;;;1.20;;
10333;SDS011;5212;47.892;16.406;2023-07-30T12:56:15;1.33;;;1.23;;
10333;SDS011;5212;47.892;16.406;2023-07-30T12:58:41;1.30;;;1.20;;
10333;SDS011;5212;47.892;16.406;2023-07-30T13:01:07;1.20;;;1.10;;
10333;SDS011;5212;47.892;16.406;2023-07-30T13:03:33;1.70;;;1.30;;
10333;SDS011;5212;47.892;16.406;2023-07-30T13:06:00;1.33;;;1.23;;
10333;SDS011;5212;47.892;16.406;2023-07-30T13:08:26;1.30;;;1.20;;
10333;SDS011;5212;47.892;16.406;2023-07-30T13:10:52;2.33;;;1.43;;
10333;SDS011;5212;47.892;16.406;2023-07-30T13:13:18;1.10;;;1.00;;
10333;SDS011;5212;47.892;16.406;2023-07-30T13:15:44;1.70;;;1.00;;
10333;SDS011;5212;47.892;16.406;2023-07-30T13:18:11;1.00;;;0.90;;
10333;SDS011;5212;47.892;16.406;2023-07-30T13:20:37;1.00;;;0.90;;
10333;SDS011;5212;47.892;16.406;2023-07-30T13:23:03;0.93;;;0.80;;
10333;SDS011;5212;47.892;16.406;2023-07-30T13:25:29;1.00;;;0.90;;
10333;SDS011;5212;47.892;16.406;2023-07-30T13:27:55;0.80;;;0.70;;
10333;SDS011;5212;47.892;16.406;2023-07-30T13:30:21;2.00;;;0.90;;
10333;SDS011;5212;47.892;16.406;2023-07-30T13:32:47;1.40;;;1.00;;
10333;SDS011;5212;47.892;16.406;2023-07-30T13:35:14;1.23;;;1.00;;
10333;SDS011;5212;47.892;16.406;2023-07-30T13:37:40;0.80;;;0.80;;
10333;SDS011;5212;47.892;16.406;2023-07-30T13:40:06;1.43;;;0.93;;
10333;SDS011;5212;47.892;16.406;2023-07-30T13:42:33;1.10;;;1.00;;
10333;SDS011;5212;47.892;16.406;2023-07-30T13:44:59;1.20;;;1.10;;
10333;SDS011;5212;47.892;16.406;2023-07-30T13:47:25;1.20;;;1.00;;
10333;SDS011;5212;47.892;16.406;2023-07-30T13:49:51;1.50;;;1.30;;
10333;SDS011;5212;47.892;16.406;2023-07-30T13:52:19;1.00;;;0.90;;
10333;SDS011;5212;47.892;16.406;2023-07-30T13:54:45;1.30;;;1.10;;
10333;SDS011;5212;47.892;16.406;2023-07-30T13:57:11;0.80;;;0.80;;
10333;SDS011;5212;47.892;16.406;2023-07-30T13:59:37;2.10;;;0.93;;
10333;SDS011;5212;47.892;16.406;2023-07-30T14:02:05;1.10;;;1.00;;
10333;SDS011;5212;47.892;16.406;2023-07-30T14:04:31;1.20;;;1.10;;
10333;SDS011;5212;47.892;16.406;2023-07-30T14:06:57;1.43;;;1.00;;
10333;SDS011;5212;47.892;16.406;2023-07-30T14:09:23;1.97;;;1.10;;
10333;SDS011;5212;47.892;16.406;2023-07-30T14:11:52;1.53;;;1.20;;
10333;SDS011;5212;47.892;16.406;2023-07-30T14:14:18;1.40;;;1.30;;
10333;SDS011;5212;47.892;16.406;2023-07-30T14:16:47;1.30;;;1.20;;
10333;SDS011;5212;47.892;16.406;2023-07-30T14:19:13;2.43;;;1.40;;
10333;SDS011;5212;47.892;16.406;2023-07-30T14:21:39;1.37;;;1.27;;
10333;SDS011;5212;47.892;16.406;2023-07-30T14:24:05;1.33;;;1.23;;
10333;SDS011;5212;47.892;16.406;2023-07-30T14:26:32;1.60;;;1.50;;
10333;SDS011;5212;47.892;16.406;2023-07-30T14:28:57;1.60;;;1.50;;
10333;SDS011;5212;47.892;16.406;2023-07-30T14:31:23;1.40;;;1.30;;
10333;SDS011;5212;47.892;16.406;2023-07-30T14:33:50;1.67;;;1.20;;
10333;SDS011;5212;47.892;16.406;2023-07-30T14:36:16;1.30;;;1.20;;
10333;SDS011;5212;47.892;16.406;2023-07-30T14:38:42;1.50;;;1.40;;
10333;SDS011;5212;47.892;16.406;2023-07-30T14:41:08;1.40;;;1.30;;
10333;SDS011;5212;47.892;16.406;2023-07-30T14:43:35;1.57;;;1.10;;